sensor_id;sensor_type;location;lat;lon;timestamp;P1;durP1;ratioP1;P2;durP2;ratioP2
41275;SDS011;27010;47.718;12.912;2022-09-25T00:00:11;7.50;;;6.63;;
41275;SDS011;27010;47.718;12.912;2022-09-25T00:03:15;10.77;;;7.50;;
41275;SDS011;27010;47.718;12.912;2022-09-25T00:06:18;9.33;;;7.60;;
41275;SDS011;27010;47.718;12.912;2022-09-25T00:09:22;9.70;;;7.57;;
41275;SDS011;27010;47.718;12.912;2022-09-25T00:12:24;9.10;;;7.87;;
41275;SDS011;27010;47.718;12.912;2022-09-25T00:15:26;10.00;;;7.70;;
41275;SDS011;27010;47.718;12.912;2022-09-25T00:18:28;12.00;;;8.77;;
41275;SDS011;27010;47.718;12.912;2022-09-25T00:21:49;12.30;;;9.63;;
41275;SDS011;27010;47.718;12.912;2022-09-25T00:24:53;13.60;;;9.77;;
41275;SDS011;27010;47.718;12.912;2022-09-25T00:27:55;10.60;;;9.40;;
41275;SDS011;27010;47.718;12.912;2022-09-25T00:30:57;9.60;;;8.17;;
41275;SDS011;27010;47.718;12.912;2022-09-25T00:34:02;8.87;;;7.53;;
41275;SDS011;27010;47.718;12.912;2022-09-25T00:37:06;12.30;;;8.40;;
41275;SDS011;27010;47.718;12.912;2022-09-25T00:40:08;11.97;;;8.13;;
41275;SDS011;27010;47.718;12.912;2022-09-25T00:43:14;9.60;;;8.13;;
41275;SDS011;27010;47.718;12.912;2022-09-25T00:46:34;7.87;;;6.30;;
41275;SDS011;27010;47.718;12.912;2022-09-25T00:49:43;8.47;;;7.40;;
41275;SDS011;27010;47.718;12.912;2022-09-25T00:52:45;11.13;;;7.83;;
41275;SDS011;27010;47.718;12.912;2022-09-25T00:55:48;9.77;;;8.73;;
41275;SDS011;27010;47.718;12.912;2022-09-25T00:58:51;9.93;;;8.93;;
41275;SDS011;27010;47.718;12.912;2022-09-25T01:01:53;10.83;;;8.67;;
41275;SDS011;27010;47.718;12.912;2022-09-25T01:04:57;9.37;;;7.90;;
41275;SDS011;27010;47.718;12.912;2022-09-25T01:08:02;9.47;;;8.23;;
41275;SDS011;27010;47.718;12.912;2022-09-25T01:11:06;11.77;;;10.20;;
41275;SDS011;27010;47.718;12.912;2022-09-25T01:14:08;10.93;;;9.73;;
41275;SDS011;27010;47.718;12.912;2022-09-25T01:20:39;13.10;;;9.90;;
41275;SDS011;27010;47.718;12.912;2022-09-25T01:27:38;10.93;;;8.90;;
41275;SDS011;27010;47.718;12.912;2022-09-25T01:30:44;15.70;;;8.73;;
41275;SDS011;27010;47.718;12.912;2022-09-25T01:33:54;11.33;;;10.10;;
41275;SDS011;27010;47.718;12.912;2022-09-25T01:37:43;11.63;;;10.30;;
41275;SDS011;27010;47.718;12.912;2022-09-25T01:40:51;11.67;;;10.03;;
41275;SDS011;27010;47.718;12.912;2022-09-25T01:43:58;12.80;;;9.80;;
41275;SDS011;27010;47.718;12.912;2022-09-25T01:47:09;10.17;;;9.17;;
41275;SDS011;27010;47.718;12.912;2022-09-25T01:50:16;9.40;;;8.40;;
41275;SDS011;27010;47.718;12.912;2022-09-25T01:53:22;8.30;;;7.37;;
41275;SDS011;27010;47.718;12.912;2022-09-25T01:57:11;7.07;;;6.37;;
41275;SDS011;27010;47.718;12.912;2022-09-25T02:00:07;6.17;;;5.50;;
41275;SDS011;27010;47.718;12.912;2022-09-25T02:03:19;6.67;;;6.07;;
41275;SDS011;27010;47.718;12.912;2022-09-25T02:06:27;7.20;;;6.50;;
41275;SDS011;27010;47.718;12.912;2022-09-25T02:09:31;6.60;;;6.00;;
41275;SDS011;27010;47.718;12.912;2022-09-25T02:12:39;9.70;;;7.93;;
41275;SDS011;27010;47.718;12.912;2022-09-25T02:15:55;9.53;;;7.70;;
41275;SDS011;27010;47.718;12.912;2022-09-25T02:18:58;10.23;;;8.73;;
41275;SDS011;27010;47.718;12.912;2022-09-25T02:22:21;9.33;;;8.33;;
41275;SDS011;27010;47.718;12.912;2022-09-25T02:25:48;8.17;;;7.33;;
41275;SDS011;27010;47.718;12.912;2022-09-25T02:28:57;6.80;;;5.93;;
41275;SDS011;27010;47.718;12.912;2022-09-25T02:32:04;15.23;;;11.20;;
41275;SDS011;27010;47.718;12.912;2022-09-25T02:35:09;11.97;;;9.13;;
41275;SDS011;27010;47.718;12.912;2022-09-25T02:38:11;8.83;;;6.23;;
41275;SDS011;27010;47.718;12.912;2022-09-25T02:45:11;8.43;;;7.53;;
41275;SDS011;27010;47.718;12.912;2022-09-25T02:51:40;8.30;;;7.13;;
41275;SDS011;27010;47.718;12.912;2022-09-25T03:01:46;9.43;;;8.50;;
41275;SDS011;27010;47.718;12.912;2022-09-25T03:04:48;7.83;;;6.87;;
41275;SDS011;27010;47.718;12.912;2022-09-25T03:07:52;5.83;;;5.13;;
41275;SDS011;27010;47.718;12.912;2022-09-25T03:11:16;5.03;;;4.50;;
41275;SDS011;27010;47.718;12.912;2022-09-25T03:14:20;5.90;;;5.30;;
41275;SDS011;27010;47.718;12.912;2022-09-25T03:17:22;5.53;;;4.47;;
41275;SDS011;27010;47.718;12.912;2022-09-25T03:20:25;6.23;;;4.87;;
41275;SDS011;27010;47.718;12.912;2022-09-25T03:23:27;5.90;;;4.70;;
41275;SDS011;27010;47.718;12.912;2022-09-25T03:26:29;6.20;;;5.60;;
41275;SDS011;27010;47.718;12.912;2022-09-25T03:29:31;7.27;;;5.30;;
41275;SDS011;27010;47.718;12.912;2022-09-25T03:32:34;7.03;;;6.17;;
41275;SDS011;27010;47.718;12.912;2022-09-25T03:35:36;7.10;;;6.40;;
41275;SDS011;27010;47.718;12.912;2022-09-25T03:38:39;8.73;;;7.83;;
41275;SDS011;27010;47.718;12.912;2022-09-25T03:41:42;10.73;;;8.70;;
41275;SDS011;27010;47.718;12.912;2022-09-25T03:44:45;8.77;;;6.60;;
41275;SDS011;27010;47.718;12.912;2022-09-25T03:47:47;6.03;;;5.43;;
41275;SDS011;27010;47.718;12.912;2022-09-25T03:50:49;7.30;;;5.50;;
41275;SDS011;27010;47.718;12.912;2022-09-25T03:53:51;5.97;;;5.33;;
41275;SDS011;27010;47.718;12.912;2022-09-25T03:56:54;10.03;;;6.90;;
41275;SDS011;27010;47.718;12.912;2022-09-25T03:59:56;10.90;;;8.40;;
41275;SDS011;27010;47.718;12.912;2022-09-25T04:03:02;12.03;;;9.17;;
41275;SDS011;27010;47.718;12.912;2022-09-25T04:06:05;11.87;;;9.33;;
41275;SDS011;27010;47.718;12.912;2022-09-25T04:09:09;13.90;;;10.23;;
41275;SDS011;27010;47.718;12.912;2022-09-25T04:12:10;13.90;;;10.47;;
41275;SDS011;27010;47.718;12.912;2022-09-25T04:15:13;13.70;;;11.13;;
41275;SDS011;27010;47.718;12.912;2022-09-25T04:18:15;12.83;;;10.80;;
41275;SDS011;27010;47.718;12.912;2022-09-25T04:21:18;13.10;;;10.33;;
41275;SDS011;27010;47.718;12.912;2022-09-25T04:24:20;12.47;;;10.67;;
41275;SDS011;27010;47.718;12.912;2022-09-25T04:27:40;14.83;;;11.60;;
41275;SDS011;27010;47.718;12.912;2022-09-25T04:30:45;14.90;;;12.20;;
41275;SDS011;27010;47.718;12.912;2022-09-25T04:33:47;15.97;;;12.83;;
41275;SDS011;27010;47.718;12.912;2022-09-25T04:36:50;14.50;;;12.77;;
41275;SDS011;27010;47.718;12.912;2022-09-25T04:39:52;15.20;;;12.17;;
41275;SDS011;27010;47.718;12.912;2022-09-25T04:42:56;16.87;;;12.57;;
41275;SDS011;27010;47.718;12.912;2022-09-25T04:46:06;18.00;;;13.70;;
41275;SDS011;27010;47.718;12.912;2022-09-25T04:49:09;15.77;;;12.80;;
41275;SDS011;27010;47.718;12.912;2022-09-25T04:52:11;18.27;;;13.33;;
41275;SDS011;27010;47.718;12.912;2022-09-25T04:55:18;18.00;;;13.77;;
41275;SDS011;27010;47.718;12.912;2022-09-25T04:58:24;14.70;;;12.47;;
41275;SDS011;27010;47.718;12.912;2022-09-25T05:01:26;15.63;;;12.73;;
41275;SDS011;27010;47.718;12.912;2022-09-25T05:04:29;14.30;;;11.77;;
41275;SDS011;27010;47.718;12.912;2022-09-25T05:07:31;15.30;;;10.40;;
41275;SDS011;27010;47.718;12.912;2022-09-25T05:10:33;14.77;;;10.67;;
41275;SDS011;27010;47.718;12.912;2022-09-25T05:13:35;12.00;;;8.70;;
41275;SDS011;27010;47.718;12.912;2022-09-25T05:16:37;8.73;;;7.83;;
41275;SDS011;27010;47.718;12.912;2022-09-25T05:19:39;9.07;;;7.27;;
41275;SDS011;27010;47.718;12.912;2022-09-25T05:22:42;6.70;;;5.97;;
41275;SDS011;27010;47.718;12.912;2022-09-25T05:25:54;8.20;;;6.77;;
41275;SDS011;27010;47.718;12.912;2022-09-25T05:28:58;9.47;;;8.47;;
41275;SDS011;27010;47.718;12.912;2022-09-25T05:32:00;12.00;;;9.00;;
41275;SDS011;27010;47.718;12.912;2022-09-25T05:35:03;10.40;;;8.50;;
41275;SDS011;27010;47.718;12.912;2022-09-25T05:38:06;8.10;;;6.83;;
41275;SDS011;27010;47.718;12.912;2022-09-25T05:41:10;7.03;;;5.63;;
41275;SDS011;27010;47.718;12.912;2022-09-25T05:44:12;14.73;;;10.80;;
41275;SDS011;27010;47.718;12.912;2022-09-25T05:47:15;13.97;;;10.03;;
41275;SDS011;27010;47.718;12.912;2022-09-25T05:50:17;18.13;;;11.90;;
41275;SDS011;27010;47.718;12.912;2022-09-25T05:53:20;18.47;;;13.17;;
41275;SDS011;27010;47.718;12.912;2022-09-25T05:56:22;18.23;;;14.90;;
41275;SDS011;27010;47.718;12.912;2022-09-25T05:59:27;15.97;;;11.97;;
41275;SDS011;27010;47.718;12.912;2022-09-25T06:02:29;13.57;;;11.43;;
41275;SDS011;27010;47.718;12.912;2022-09-25T06:05:31;15.67;;;10.73;;
41275;SDS011;27010;47.718;12.912;2022-09-25T06:08:33;15.20;;;11.57;;
41275;SDS011;27010;47.718;12.912;2022-09-25T06:11:38;12.07;;;9.93;;
41275;SDS011;27010;47.718;12.912;2022-09-25T06:14:41;9.57;;;8.50;;
41275;SDS011;27010;47.718;12.912;2022-09-25T06:17:43;11.43;;;9.30;;
41275;SDS011;27010;47.718;12.912;2022-09-25T06:20:45;10.37;;;8.93;;
41275;SDS011;27010;47.718;12.912;2022-09-25T06:23:48;15.60;;;12.73;;
41275;SDS011;27010;47.718;12.912;2022-09-25T06:26:50;15.70;;;13.03;;
41275;SDS011;27010;47.718;12.912;2022-09-25T06:29:52;13.27;;;10.30;;
41275;SDS011;27010;47.718;12.912;2022-09-25T06:32:55;10.07;;;8.97;;
41275;SDS011;27010;47.718;12.912;2022-09-25T06:36:15;11.93;;;9.13;;
41275;SDS011;27010;47.718;12.912;2022-09-25T06:39:17;10.80;;;9.43;;
41275;SDS011;27010;47.718;12.912;2022-09-25T06:42:19;10.23;;;9.13;;
41275;SDS011;27010;47.718;12.912;2022-09-25T06:45:21;8.63;;;7.30;;
41275;SDS011;27010;47.718;12.912;2022-09-25T06:48:23;7.73;;;6.93;;
41275;SDS011;27010;47.718;12.912;2022-09-25T06:51:25;8.30;;;7.50;;
41275;SDS011;27010;47.718;12.912;2022-09-25T06:54:33;7.93;;;7.10;;
41275;SDS011;27010;47.718;12.912;2022-09-25T06:57:35;9.10;;;7.97;;
41275;SDS011;27010;47.718;12.912;2022-09-25T07:00:40;11.67;;;9.47;;
41275;SDS011;27010;47.718;12.912;2022-09-25T07:03:42;10.87;;;9.20;;
41275;SDS011;27010;47.718;12.912;2022-09-25T07:06:49;12.90;;;9.90;;
41275;SDS011;27010;47.718;12.912;2022-09-25T07:09:51;15.13;;;10.80;;
41275;SDS011;27010;47.718;12.912;2022-09-25T07:12:54;18.67;;;11.33;;
41275;SDS011;27010;47.718;12.912;2022-09-25T07:15:57;22.80;;;12.93;;
41275;SDS011;27010;47.718;12.912;2022-09-25T07:19:07;9.83;;;7.30;;
41275;SDS011;27010;47.718;12.912;2022-09-25T07:22:09;12.27;;;9.10;;
41275;SDS011;27010;47.718;12.912;2022-09-25T07:25:13;7.47;;;5.73;;
41275;SDS011;27010;47.718;12.912;2022-09-25T07:28:15;6.37;;;5.77;;
41275;SDS011;27010;47.718;12.912;2022-09-25T07:31:23;7.53;;;6.20;;
41275;SDS011;27010;47.718;12.912;2022-09-25T07:34:30;7.03;;;5.93;;
41275;SDS011;27010;47.718;12.912;2022-09-25T07:37:32;14.87;;;5.00;;
41275;SDS011;27010;47.718;12.912;2022-09-25T07:40:34;5.73;;;5.23;;
41275;SDS011;27010;47.718;12.912;2022-09-25T07:43:37;6.27;;;5.40;;
41275;SDS011;27010;47.718;12.912;2022-09-25T07:46:40;6.27;;;5.67;;
41275;SDS011;27010;47.718;12.912;2022-09-25T07:49:45;7.13;;;6.20;;
41275;SDS011;27010;47.718;12.912;2022-09-25T07:52:47;6.80;;;6.10;;
41275;SDS011;27010;47.718;12.912;2022-09-25T07:55:49;7.33;;;6.07;;
41275;SDS011;27010;47.718;12.912;2022-09-25T07:58:51;6.10;;;5.50;;
41275;SDS011;27010;47.718;12.912;2022-09-25T08:01:54;6.87;;;5.80;;
41275;SDS011;27010;47.718;12.912;2022-09-25T08:04:57;7.03;;;6.23;;
41275;SDS011;27010;47.718;12.912;2022-09-25T08:08:00;8.13;;;6.47;;
41275;SDS011;27010;47.718;12.912;2022-09-25T08:11:06;6.57;;;5.97;;
41275;SDS011;27010;47.718;12.912;2022-09-25T08:14:13;7.07;;;6.37;;
41275;SDS011;27010;47.718;12.912;2022-09-25T08:17:15;6.27;;;5.63;;
41275;SDS011;27010;47.718;12.912;2022-09-25T08:20:17;6.73;;;6.13;;
41275;SDS011;27010;47.718;12.912;2022-09-25T08:23:19;5.63;;;5.13;;
41275;SDS011;27010;47.718;12.912;2022-09-25T08:26:21;6.80;;;5.43;;
41275;SDS011;27010;47.718;12.912;2022-09-25T08:29:23;6.17;;;5.10;;
41275;SDS011;27010;47.718;12.912;2022-09-25T08:32:25;6.57;;;5.97;;
41275;SDS011;27010;47.718;12.912;2022-09-25T08:35:27;7.70;;;5.90;;
41275;SDS011;27010;47.718;12.912;2022-09-25T08:38:29;6.83;;;5.17;;
41275;SDS011;27010;47.718;12.912;2022-09-25T08:41:44;7.33;;;5.27;;
41275;SDS011;27010;47.718;12.912;2022-09-25T08:44:50;6.77;;;5.27;;
41275;SDS011;27010;47.718;12.912;2022-09-25T08:48:25;5.40;;;4.90;;
41275;SDS011;27010;47.718;12.912;2022-09-25T08:52:04;6.00;;;4.90;;
41275;SDS011;27010;47.718;12.912;2022-09-25T08:55:15;5.23;;;4.73;;
41275;SDS011;27010;47.718;12.912;2022-09-25T08:58:24;5.50;;;5.00;;
41275;SDS011;27010;47.718;12.912;2022-09-25T09:01:34;5.43;;;4.90;;
41275;SDS011;27010;47.718;12.912;2022-09-25T09:04:47;7.33;;;5.17;;
41275;SDS011;27010;47.718;12.912;2022-09-25T09:08:16;6.17;;;5.57;;
41275;SDS011;27010;47.718;12.912;2022-09-25T09:14:57;7.53;;;6.70;;
41275;SDS011;27010;47.718;12.912;2022-09-25T09:18:29;7.37;;;6.20;;
41275;SDS011;27010;47.718;12.912;2022-09-25T09:21:35;7.37;;;6.63;;
41275;SDS011;27010;47.718;12.912;2022-09-25T09:28:05;7.37;;;6.67;;
41275;SDS011;27010;47.718;12.912;2022-09-25T09:41:42;10.10;;;6.57;;
41275;SDS011;27010;47.718;12.912;2022-09-25T09:45:05;7.27;;;6.53;;
41275;SDS011;27010;47.718;12.912;2022-09-25T09:55:23;5.07;;;4.63;;
41275;SDS011;27010;47.718;12.912;2022-09-25T10:05:49;4.40;;;4.00;;
41275;SDS011;27010;47.718;12.912;2022-09-25T10:08:53;6.93;;;4.30;;
41275;SDS011;27010;47.718;12.912;2022-09-25T10:12:05;4.70;;;4.27;;
41275;SDS011;27010;47.718;12.912;2022-09-25T10:15:23;4.73;;;4.30;;
41275;SDS011;27010;47.718;12.912;2022-09-25T10:18:39;5.10;;;4.53;;
41275;SDS011;27010;47.718;12.912;2022-09-25T10:21:53;6.37;;;4.63;;
41275;SDS011;27010;47.718;12.912;2022-09-25T10:24:58;5.20;;;4.70;;
41275;SDS011;27010;47.718;12.912;2022-09-25T10:28:29;6.13;;;4.90;;
41275;SDS011;27010;47.718;12.912;2022-09-25T10:31:32;5.73;;;5.13;;
41275;SDS011;27010;47.718;12.912;2022-09-25T10:34:36;6.90;;;5.60;;
41275;SDS011;27010;47.718;12.912;2022-09-25T10:37:42;5.80;;;5.10;;
41275;SDS011;27010;47.718;12.912;2022-09-25T10:40:44;6.57;;;5.97;;
41275;SDS011;27010;47.718;12.912;2022-09-25T10:47:30;8.63;;;6.40;;
41275;SDS011;27010;47.718;12.912;2022-09-25T10:50:44;9.40;;;6.50;;
41275;SDS011;27010;47.718;12.912;2022-09-25T10:53:48;7.50;;;6.70;;
41275;SDS011;27010;47.718;12.912;2022-09-25T10:56:55;7.73;;;6.93;;
41275;SDS011;27010;47.718;12.912;2022-09-25T10:59:57;8.50;;;7.07;;
41275;SDS011;27010;47.718;12.912;2022-09-25T11:03:00;9.80;;;7.10;;
41275;SDS011;27010;47.718;12.912;2022-09-25T11:06:07;7.83;;;6.77;;
41275;SDS011;27010;47.718;12.912;2022-09-25T11:09:21;7.53;;;6.80;;
41275;SDS011;27010;47.718;12.912;2022-09-25T11:12:25;7.83;;;7.00;;
41275;SDS011;27010;47.718;12.912;2022-09-25T11:15:31;8.43;;;7.17;;
41275;SDS011;27010;47.718;12.912;2022-09-25T11:18:42;8.23;;;7.43;;
41275;SDS011;27010;47.718;12.912;2022-09-25T11:21:48;7.87;;;6.97;;
41275;SDS011;27010;47.718;12.912;2022-09-25T11:25:12;8.40;;;7.60;;
41275;SDS011;27010;47.718;12.912;2022-09-25T11:38:33;9.63;;;8.63;;
41275;SDS011;27010;47.718;12.912;2022-09-25T11:42:10;11.17;;;8.63;;
41275;SDS011;27010;47.718;12.912;2022-09-25T11:45:29;10.03;;;8.43;;
41275;SDS011;27010;47.718;12.912;2022-09-25T11:55:47;10.03;;;8.87;;
41275;SDS011;27010;47.718;12.912;2022-09-25T12:15:30;10.10;;;9.10;;
41275;SDS011;27010;47.718;12.912;2022-09-25T12:18:50;10.53;;;9.43;;
41275;SDS011;27010;47.718;12.912;2022-09-25T12:25:20;11.00;;;9.20;;
41275;SDS011;27010;47.718;12.912;2022-09-25T12:28:41;10.73;;;9.63;;
41275;SDS011;27010;47.718;12.912;2022-09-25T12:32:14;9.93;;;8.93;;
41275;SDS011;27010;47.718;12.912;2022-09-25T12:35:35;9.37;;;8.37;;
41275;SDS011;27010;47.718;12.912;2022-09-25T12:38:56;10.83;;;9.23;;
41275;SDS011;27010;47.718;12.912;2022-09-25T12:42:23;9.17;;;8.27;;
41275;SDS011;27010;47.718;12.912;2022-09-25T12:46:00;10.33;;;9.33;;
41275;SDS011;27010;47.718;12.912;2022-09-25T12:52:49;9.23;;;8.17;;
41275;SDS011;27010;47.718;12.912;2022-09-25T12:55:45;8.83;;;7.93;;
41275;SDS011;27010;47.718;12.912;2022-09-25T13:01:55;15.07;;;12.43;;
41275;SDS011;27010;47.718;12.912;2022-09-25T13:05:10;11.70;;;9.83;;
41275;SDS011;27010;47.718;12.912;2022-09-25T13:11:53;9.43;;;8.20;;
41275;SDS011;27010;47.718;12.912;2022-09-25T13:18:16;10.13;;;9.13;;
41275;SDS011;27010;47.718;12.912;2022-09-25T13:24:27;9.10;;;8.20;;
41275;SDS011;27010;47.718;12.912;2022-09-25T13:27:30;10.13;;;8.77;;
41275;SDS011;27010;47.718;12.912;2022-09-25T13:30:43;13.87;;;10.97;;
41275;SDS011;27010;47.718;12.912;2022-09-25T13:37:08;20.03;;;15.03;;
41275;SDS011;27010;47.718;12.912;2022-09-25T13:40:25;18.33;;;14.17;;
41275;SDS011;27010;47.718;12.912;2022-09-25T13:43:43;14.73;;;12.60;;
41275;SDS011;27010;47.718;12.912;2022-09-25T13:46:49;15.93;;;12.93;;
41275;SDS011;27010;47.718;12.912;2022-09-25T13:53:13;16.53;;;14.83;;
41275;SDS011;27010;47.718;12.912;2022-09-25T13:56:23;21.47;;;16.37;;
41275;SDS011;27010;47.718;12.912;2022-09-25T13:59:35;17.40;;;14.73;;
41275;SDS011;27010;47.718;12.912;2022-09-25T14:02:41;16.63;;;14.30;;
41275;SDS011;27010;47.718;12.912;2022-09-25T14:05:44;17.10;;;15.17;;
41275;SDS011;27010;47.718;12.912;2022-09-25T14:08:47;17.63;;;14.20;;
41275;SDS011;27010;47.718;12.912;2022-09-25T14:12:13;17.17;;;15.30;;
41275;SDS011;27010;47.718;12.912;2022-09-25T14:18:35;19.97;;;14.00;;
41275;SDS011;27010;47.718;12.912;2022-09-25T14:21:39;17.17;;;15.10;;
41275;SDS011;27010;47.718;12.912;2022-09-25T14:24:44;16.33;;;13.40;;
41275;SDS011;27010;47.718;12.912;2022-09-25T14:27:49;16.27;;;14.43;;
41275;SDS011;27010;47.718;12.912;2022-09-25T14:31:16;20.00;;;15.37;;
41275;SDS011;27010;47.718;12.912;2022-09-25T14:47:34;22.90;;;19.60;;
41275;SDS011;27010;47.718;12.912;2022-09-25T14:50:41;23.20;;;18.80;;
41275;SDS011;27010;47.718;12.912;2022-09-25T14:53:48;23.07;;;19.17;;
41275;SDS011;27010;47.718;12.912;2022-09-25T14:56:59;20.60;;;16.27;;
41275;SDS011;27010;47.718;12.912;2022-09-25T15:00:06;19.60;;;16.07;;
41275;SDS011;27010;47.718;12.912;2022-09-25T15:03:10;17.77;;;15.33;;
41275;SDS011;27010;47.718;12.912;2022-09-25T15:06:24;18.03;;;15.50;;
41275;SDS011;27010;47.718;12.912;2022-09-25T15:09:35;17.97;;;14.43;;
41275;SDS011;27010;47.718;12.912;2022-09-25T15:12:42;18.07;;;16.17;;
41275;SDS011;27010;47.718;12.912;2022-09-25T15:15:47;17.13;;;14.33;;
41275;SDS011;27010;47.718;12.912;2022-09-25T15:19:17;17.63;;;15.17;;
41275;SDS011;27010;47.718;12.912;2022-09-25T15:22:33;17.87;;;14.53;;
41275;SDS011;27010;47.718;12.912;2022-09-25T15:25:38;19.37;;;15.47;;
41275;SDS011;27010;47.718;12.912;2022-09-25T15:28:42;18.07;;;15.13;;
41275;SDS011;27010;47.718;12.912;2022-09-25T15:31:45;19.50;;;15.77;;
41275;SDS011;27010;47.718;12.912;2022-09-25T15:35:03;20.40;;;18.03;;
41275;SDS011;27010;47.718;12.912;2022-09-25T15:38:18;18.57;;;16.57;;
41275;SDS011;27010;47.718;12.912;2022-09-25T15:41:21;22.53;;;14.87;;
41275;SDS011;27010;47.718;12.912;2022-09-25T15:44:26;16.47;;;14.40;;
41275;SDS011;27010;47.718;12.912;2022-09-25T15:50:36;18.47;;;15.07;;
41275;SDS011;27010;47.718;12.912;2022-09-25T15:53:48;17.30;;;13.73;;
41275;SDS011;27010;47.718;12.912;2022-09-25T15:56:52;16.17;;;13.97;;
41275;SDS011;27010;47.718;12.912;2022-09-25T15:59:56;17.70;;;14.83;;
41275;SDS011;27010;47.718;12.912;2022-09-25T16:03:19;16.97;;;14.80;;
41275;SDS011;27010;47.718;12.912;2022-09-25T16:06:42;18.37;;;14.33;;
41275;SDS011;27010;47.718;12.912;2022-09-25T16:09:46;19.07;;;14.90;;
41275;SDS011;27010;47.718;12.912;2022-09-25T16:12:48;15.73;;;14.07;;
41275;SDS011;27010;47.718;12.912;2022-09-25T16:15:51;14.60;;;12.97;;
41275;SDS011;27010;47.718;12.912;2022-09-25T16:18:57;13.90;;;12.50;;
41275;SDS011;27010;47.718;12.912;2022-09-25T16:22:11;14.63;;;11.57;;
41275;SDS011;27010;47.718;12.912;2022-09-25T16:25:28;15.87;;;12.37;;
41275;SDS011;27010;47.718;12.912;2022-09-25T16:28:36;13.53;;;11.37;;
41275;SDS011;27010;47.718;12.912;2022-09-25T16:31:38;14.70;;;11.80;;
41275;SDS011;27010;47.718;12.912;2022-09-25T16:34:47;15.67;;;14.00;;
41275;SDS011;27010;47.718;12.912;2022-09-25T16:37:55;10.97;;;9.87;;
41275;SDS011;27010;47.718;12.912;2022-09-25T16:41:02;7.40;;;6.70;;
41275;SDS011;27010;47.718;12.912;2022-09-25T16:44:19;7.83;;;6.43;;
41275;SDS011;27010;47.718;12.912;2022-09-25T16:47:23;7.90;;;5.97;;
41275;SDS011;27010;47.718;12.912;2022-09-25T16:50:29;6.40;;;5.80;;
41275;SDS011;27010;47.718;12.912;2022-09-25T16:53:34;6.53;;;5.03;;
41275;SDS011;27010;47.718;12.912;2022-09-25T16:56:36;4.50;;;3.60;;
41275;SDS011;27010;47.718;12.912;2022-09-25T16:59:41;5.17;;;4.67;;
41275;SDS011;27010;47.718;12.912;2022-09-25T17:02:44;4.83;;;4.43;;
41275;SDS011;27010;47.718;12.912;2022-09-25T17:05:48;6.17;;;5.27;;
41275;SDS011;27010;47.718;12.912;2022-09-25T17:08:50;8.63;;;7.07;;
41275;SDS011;27010;47.718;12.912;2022-09-25T17:11:56;4.93;;;4.43;;
41275;SDS011;27010;47.718;12.912;2022-09-25T17:15:00;5.87;;;4.77;;
41275;SDS011;27010;47.718;12.912;2022-09-25T17:18:05;6.50;;;5.77;;
41275;SDS011;27010;47.718;12.912;2022-09-25T17:21:13;7.70;;;4.23;;
41275;SDS011;27010;47.718;12.912;2022-09-25T17:24:17;7.80;;;5.77;;
41275;SDS011;27010;47.718;12.912;2022-09-25T17:27:20;10.10;;;5.30;;
41275;SDS011;27010;47.718;12.912;2022-09-25T17:30:22;4.93;;;4.40;;
41275;SDS011;27010;47.718;12.912;2022-09-25T17:33:24;5.13;;;4.00;;
41275;SDS011;27010;47.718;12.912;2022-09-25T17:36:28;5.50;;;3.60;;
41275;SDS011;27010;47.718;12.912;2022-09-25T17:39:30;6.70;;;3.60;;
41275;SDS011;27010;47.718;12.912;2022-09-25T17:42:32;3.30;;;3.00;;
41275;SDS011;27010;47.718;12.912;2022-09-25T17:48:37;3.57;;;2.50;;
41275;SDS011;27010;47.718;12.912;2022-09-25T17:51:39;2.97;;;2.50;;
41275;SDS011;27010;47.718;12.912;2022-09-25T17:54:42;4.00;;;2.90;;
41275;SDS011;27010;47.718;12.912;2022-09-25T17:57:44;2.80;;;2.50;;
41275;SDS011;27010;47.718;12.912;2022-09-25T18:00:47;3.00;;;2.70;;
41275;SDS011;27010;47.718;12.912;2022-09-25T18:03:50;3.70;;;2.43;;
41275;SDS011;27010;47.718;12.912;2022-09-25T18:06:54;2.70;;;2.43;;
41275;SDS011;27010;47.718;12.912;2022-09-25T18:09:57;7.90;;;3.00;;
41275;SDS011;27010;47.718;12.912;2022-09-25T18:12:59;3.67;;;2.90;;
41275;SDS011;27010;47.718;12.912;2022-09-25T18:16:01;3.20;;;2.57;;
41275;SDS011;27010;47.718;12.912;2022-09-25T18:19:04;5.90;;;2.93;;
41275;SDS011;27010;47.718;12.912;2022-09-25T18:22:24;3.27;;;2.97;;
41275;SDS011;27010;47.718;12.912;2022-09-25T18:25:26;3.67;;;3.30;;
41275;SDS011;27010;47.718;12.912;2022-09-25T18:28:28;5.37;;;3.90;;
41275;SDS011;27010;47.718;12.912;2022-09-25T18:31:33;9.67;;;4.53;;
41275;SDS011;27010;47.718;12.912;2022-09-25T18:34:38;4.67;;;4.27;;
41275;SDS011;27010;47.718;12.912;2022-09-25T18:37:40;6.93;;;5.03;;
41275;SDS011;27010;47.718;12.912;2022-09-25T18:40:44;4.93;;;4.37;;
41275;SDS011;27010;47.718;12.912;2022-09-25T18:43:49;5.37;;;4.70;;
41275;SDS011;27010;47.718;12.912;2022-09-25T18:46:51;5.13;;;4.00;;
41275;SDS011;27010;47.718;12.912;2022-09-25T18:49:58;5.07;;;3.80;;
41275;SDS011;27010;47.718;12.912;2022-09-25T18:53:00;4.97;;;3.90;;
41275;SDS011;27010;47.718;12.912;2022-09-25T18:56:02;6.83;;;4.33;;
41275;SDS011;27010;47.718;12.912;2022-09-25T18:59:05;7.10;;;4.13;;
41275;SDS011;27010;47.718;12.912;2022-09-25T19:02:13;5.70;;;3.87;;
41275;SDS011;27010;47.718;12.912;2022-09-25T19:05:22;4.97;;;4.07;;
41275;SDS011;27010;47.718;12.912;2022-09-25T19:08:26;3.20;;;2.90;;
41275;SDS011;27010;47.718;12.912;2022-09-25T19:11:29;2.97;;;2.60;;
41275;SDS011;27010;47.718;12.912;2022-09-25T19:14:31;3.20;;;2.50;;
41275;SDS011;27010;47.718;12.912;2022-09-25T19:17:35;3.70;;;3.30;;
41275;SDS011;27010;47.718;12.912;2022-09-25T19:20:37;4.50;;;3.50;;
41275;SDS011;27010;47.718;12.912;2022-09-25T19:23:47;4.57;;;2.83;;
41275;SDS011;27010;47.718;12.912;2022-09-25T19:26:49;3.30;;;2.87;;
41275;SDS011;27010;47.718;12.912;2022-09-25T19:29:51;4.00;;;2.73;;
41275;SDS011;27010;47.718;12.912;2022-09-25T19:32:53;3.97;;;2.67;;
41275;SDS011;27010;47.718;12.912;2022-09-25T19:35:57;3.23;;;2.77;;
41275;SDS011;27010;47.718;12.912;2022-09-25T19:39:00;5.10;;;2.83;;
41275;SDS011;27010;47.718;12.912;2022-09-25T19:42:04;2.87;;;2.30;;
41275;SDS011;27010;47.718;12.912;2022-09-25T19:45:06;2.30;;;1.97;;
41275;SDS011;27010;47.718;12.912;2022-09-25T19:48:13;1.87;;;1.60;;
41275;SDS011;27010;47.718;12.912;2022-09-25T19:51:16;1.60;;;1.27;;
41275;SDS011;27010;47.718;12.912;2022-09-25T19:54:19;5.97;;;1.80;;
41275;SDS011;27010;47.718;12.912;2022-09-25T19:57:21;10.07;;;2.23;;
41275;SDS011;27010;47.718;12.912;2022-09-25T20:00:23;2.73;;;2.30;;
41275;SDS011;27010;47.718;12.912;2022-09-25T20:03:25;2.67;;;2.30;;
41275;SDS011;27010;47.718;12.912;2022-09-25T20:06:27;2.90;;;2.60;;
41275;SDS011;27010;47.718;12.912;2022-09-25T20:09:31;3.40;;;2.10;;
41275;SDS011;27010;47.718;12.912;2022-09-25T20:12:50;5.83;;;2.40;;
41275;SDS011;27010;47.718;12.912;2022-09-25T20:16:04;3.23;;;2.30;;
41275;SDS011;27010;47.718;12.912;2022-09-25T20:19:11;2.20;;;1.80;;
41275;SDS011;27010;47.718;12.912;2022-09-25T20:22:13;4.07;;;2.13;;
41275;SDS011;27010;47.718;12.912;2022-09-25T20:25:18;2.47;;;1.93;;
41275;SDS011;27010;47.718;12.912;2022-09-25T20:28:21;2.20;;;2.00;;
41275;SDS011;27010;47.718;12.912;2022-09-25T20:31:23;1.83;;;1.60;;
41275;SDS011;27010;47.718;12.912;2022-09-25T20:34:26;1.30;;;1.20;;
41275;SDS011;27010;47.718;12.912;2022-09-25T20:37:28;2.20;;;1.10;;